createdAt,value
2024-03-14T00:01:51.393Z,74.08
2024-03-14T00:04:17.717Z,72.48
2024-03-14T00:06:43.911Z,73.56
2024-03-14T00:09:10.179Z,73.36
2024-03-14T00:11:36.433Z,73.46
2024-03-14T00:14:02.673Z,72.92
2024-03-14T00:16:28.875Z,73.43
2024-03-14T00:18:55.236Z,73.93
2024-03-14T00:21:21.557Z,73.59
2024-03-14T00:23:47.875Z,72.86
2024-03-14T00:26:14.056Z,72.99
2024-03-14T00:28:40.349Z,73.78
2024-03-14T00:31:06.812Z,73.16
2024-03-14T00:33:33.168Z,73.11
2024-03-14T00:35:59.359Z,73.13
2024-03-14T00:38:25.608Z,73.00
2024-03-14T00:40:52.143Z,73.38
2024-03-14T00:43:18.290Z,73.38
2024-03-14T00:45:44.513Z,73.12
2024-03-14T00:48:11.027Z,72.86
2024-03-14T00:50:37.277Z,72.48
2024-03-14T00:53:03.565Z,73.02
2024-03-14T00:55:29.721Z,72.83
2024-03-14T00:57:55.899Z,72.81
2024-03-14T01:00:22.167Z,72.71
2024-03-14T01:02:48.541Z,73.40
2024-03-14T01:05:14.880Z,72.96
2024-03-14T01:07:41.094Z,73.21
2024-03-14T01:10:07.671Z,72.75
2024-03-14T01:12:34.053Z,72.88
2024-03-14T01:15:00.376Z,73.54
2024-03-14T01:17:26.660Z,73.38
2024-03-14T01:19:52.828Z,72.67
2024-03-14T01:22:19.020Z,73.12
2024-03-14T01:24:45.186Z,73.39
2024-03-14T01:27:11.438Z,73.04
2024-03-14T01:29:37.684Z,73.41
2024-03-14T01:32:03.859Z,73.26
2024-03-14T01:34:30.049Z,73.38
2024-03-14T01:36:56.272Z,73.59
2024-03-14T01:39:22.789Z,73.43
2024-03-14T01:41:49.065Z,73.50
2024-03-14T01:44:15.261Z,73.22
2024-03-14T01:46:41.474Z,73.24
2024-03-14T01:49:07.721Z,72.78
2024-03-14T01:51:34.098Z,73.96
2024-03-14T01:54:00.457Z,73.90
2024-03-14T01:56:26.660Z,73.88
2024-03-14T01:58:52.953Z,73.82
2024-03-14T02:01:19.188Z,73.66
2024-03-14T02:03:45.391Z,73.81
2024-03-14T02:06:11.637Z,73.12
2024-03-14T02:08:37.805Z,73.06
2024-03-14T02:11:03.984Z,73.19
2024-03-14T02:13:30.241Z,73.87
2024-03-14T02:15:56.564Z,73.03
2024-03-14T02:18:22.809Z,73.32
2024-03-14T02:20:49.047Z,73.00
2024-03-14T02:23:15.322Z,73.12
2024-03-14T02:25:41.547Z,72.62
2024-03-14T02:28:07.789Z,73.11
2024-03-14T02:30:33.995Z,72.95
2024-03-14T02:33:00.485Z,72.80
2024-03-14T02:35:26.764Z,72.89
2024-03-14T02:37:53.032Z,72.72
2024-03-14T02:40:19.524Z,72.55
2024-03-14T02:42:45.727Z,72.16
2024-03-14T02:45:12.045Z,72.58
2024-03-14T02:47:38.643Z,72.87
2024-03-14T02:50:04.998Z,72.94
2024-03-14T02:52:31.235Z,72.38
2024-03-14T02:54:57.411Z,72.35
2024-03-14T02:57:23.874Z,72.78
2024-03-14T02:59:50.606Z,72.42
2024-03-14T03:02:16.802Z,72.03
2024-03-14T03:04:43.071Z,72.79
2024-03-14T03:07:09.267Z,72.86
2024-03-14T03:09:35.540Z,72.87
2024-03-14T03:12:01.868Z,72.82
2024-03-14T03:14:28.235Z,73.35
2024-03-14T03:16:54.544Z,73.14
2024-03-14T03:19:20.758Z,72.45
2024-03-14T03:21:46.977Z,73.36
2024-03-14T03:24:13.250Z,73.29
2024-03-14T03:26:39.460Z,73.11
2024-03-14T03:29:05.652Z,73.38
2024-03-14T03:31:32.093Z,73.10
2024-03-14T03:33:58.451Z,73.16
2024-03-14T03:36:24.900Z,73.14
2024-03-14T03:38:51.256Z,73.44
2024-03-14T03:41:17.775Z,73.26
2024-03-14T03:43:44.013Z,73.31
2024-03-14T03:46:10.293Z,74.11
2024-03-14T03:48:36.821Z,74.31
2024-03-14T03:51:03.182Z,74.06
2024-03-14T03:53:29.365Z,73.39
2024-03-14T03:55:55.545Z,73.73
2024-03-14T03:58:21.768Z,73.26
2024-03-14T04:00:47.996Z,73.85
2024-03-14T04:03:14.266Z,73.92
2024-03-14T04:05:40.923Z,73.86
2024-03-14T04:08:07.283Z,74.21
2024-03-14T04:10:33.558Z,73.63
2024-03-14T04:12:59.784Z,74.10
2024-03-14T04:15:26.253Z,74.60
2024-03-14T04:17:52.731Z,74.43
2024-03-14T04:20:18.943Z,74.53
2024-03-14T04:22:45.136Z,75.03
2024-03-14T04:25:11.454Z,75.23
2024-03-14T04:27:38.353Z,74.80
2024-03-14T04:30:04.716Z,75.16
2024-03-14T04:32:30.951Z,75.49
2024-03-14T04:34:57.123Z,75.29
2024-03-14T04:37:23.467Z,76.26
2024-03-14T04:39:49.659Z,75.55
2024-03-14T04:42:16.151Z,75.42
2024-03-14T04:44:42.357Z,75.57
2024-03-14T04:47:08.672Z,75.64
2024-03-14T04:49:34.880Z,75.68
2024-03-14T04:52:01.154Z,75.68
2024-03-14T04:54:27.579Z,76.58
2024-03-14T04:56:53.790Z,77.06
2024-03-14T04:59:19.980Z,76.91
2024-03-14T05:01:46.210Z,76.35
2024-03-14T05:04:12.576Z,76.55
2024-03-14T05:06:38.892Z,76.17
2024-03-14T05:09:05.255Z,76.60
2024-03-14T05:11:31.606Z,76.80
2024-03-14T05:13:58.170Z,76.40
2024-03-14T05:16:24.855Z,76.77
2024-03-14T05:18:51.219Z,77.00
2024-03-14T05:21:17.574Z,76.40
2024-03-14T05:23:43.769Z,76.86
2024-03-14T05:26:10.065Z,76.80
2024-03-14T05:28:36.343Z,77.29
2024-03-14T05:31:02.586Z,76.96
2024-03-14T05:33:28.917Z,77.09
2024-03-14T05:35:55.234Z,76.72
2024-03-14T05:38:21.440Z,76.73
2024-03-14T05:40:47.693Z,77.51
2024-03-14T05:43:13.970Z,76.44
2024-03-14T05:45:40.337Z,77.30
2024-03-14T05:48:06.909Z,77.36
2024-03-14T05:50:33.345Z,77.18
2024-03-14T05:52:59.601Z,76.79
2024-03-14T05:55:26.096Z,77.46
2024-03-14T05:57:52.295Z,78.33
2024-03-14T06:00:18.556Z,77.62
2024-03-14T06:02:44.989Z,77.05
2024-03-14T06:05:11.581Z,77.57
2024-03-14T06:07:37.976Z,77.51
2024-03-14T06:10:04.175Z,76.85
2024-03-14T06:12:30.481Z,77.99
2024-03-14T06:14:56.797Z,77.50
2024-03-14T06:17:23.098Z,77.44
2024-03-14T06:19:49.404Z,77.62
2024-03-14T06:22:15.733Z,76.86
2024-03-14T06:24:42.065Z,76.69
2024-03-14T06:27:08.339Z,76.81
2024-03-14T06:29:34.547Z,77.58
2024-03-14T06:32:00.879Z,77.54
2024-03-14T06:34:27.121Z,77.24
2024-03-14T06:36:53.353Z,77.67
2024-03-14T06:39:19.627Z,77.45
2024-03-14T06:41:45.871Z,76.98
2024-03-14T06:44:12.055Z,76.77
2024-03-14T06:46:38.393Z,77.03
2024-03-14T06:49:04.654Z,76.71
2024-03-14T06:51:31.201Z,77.03
2024-03-14T06:53:59.074Z,77.26
2024-03-14T06:56:26.711Z,76.58
2024-03-14T06:58:52.938Z,77.48
2024-03-14T07:01:19.395Z,76.56
2024-03-14T07:03:45.685Z,77.06
2024-03-14T07:06:12.217Z,76.56
2024-03-14T07:08:38.471Z,76.48
2024-03-14T07:11:04.766Z,76.63
2024-03-14T07:13:31.086Z,76.45
2024-03-14T07:15:57.366Z,76.58
2024-03-14T07:18:23.675Z,76.63
2024-03-14T07:20:50.250Z,76.15
2024-03-14T07:23:16.502Z,76.27
2024-03-14T07:25:42.821Z,75.98
2024-03-14T07:28:09.126Z,75.42
2024-03-14T07:30:35.399Z,75.41
2024-03-14T07:33:01.818Z,75.29
2024-03-14T07:35:28.347Z,75.20
2024-03-14T07:37:54.564Z,75.08
2024-03-14T07:40:20.861Z,75.50
2024-03-14T07:42:47.113Z,75.98
2024-03-14T07:45:13.358Z,75.65
2024-03-14T07:47:39.678Z,75.24
2024-03-14T07:50:05.879Z,74.67
2024-03-14T07:52:32.156Z,74.69
2024-03-14T07:54:58.331Z,74.71
2024-03-14T07:57:24.564Z,74.58
2024-03-14T07:59:50.808Z,74.99
2024-03-14T08:02:17.059Z,75.01
2024-03-14T08:04:43.297Z,74.66
2024-03-14T08:07:09.507Z,74.05
2024-03-14T08:09:35.800Z,74.34
2024-03-14T08:12:02.088Z,74.56
2024-03-14T08:14:28.384Z,73.97
2024-03-14T08:16:54.559Z,72.96
2024-03-14T08:19:20.877Z,73.06
2024-03-14T08:21:47.168Z,72.46
2024-03-14T08:24:14.056Z,72.26
2024-03-14T08:26:40.448Z,71.65
2024-03-14T08:29:06.738Z,71.27
2024-03-14T08:31:33.024Z,71.24
2024-03-14T08:33:59.398Z,70.47
2024-03-14T08:36:26.013Z,70.02
2024-03-14T08:38:52.470Z,70.33
2024-03-14T08:41:18.827Z,70.57
2024-03-14T08:43:45.074Z,70.46
2024-03-14T08:46:11.322Z,69.65
2024-03-14T08:48:37.799Z,70.57
2024-03-14T08:51:04.127Z,69.02
2024-03-14T08:53:30.387Z,68.70
2024-03-14T08:55:56.937Z,68.48
2024-03-14T08:58:23.472Z,68.43
2024-03-14T09:00:49.847Z,68.13
2024-03-14T09:03:16.162Z,67.82
2024-03-14T09:05:42.403Z,67.39
2024-03-14T09:08:08.750Z,66.99
2024-03-14T09:10:35.160Z,67.01
2024-03-14T09:13:01.497Z,66.14
2024-03-14T09:15:27.879Z,66.60
2024-03-14T09:17:54.218Z,66.94
2024-03-14T09:20:20.469Z,66.68
2024-03-14T09:22:46.938Z,65.11
2024-03-14T09:25:13.240Z,66.33
2024-03-14T09:27:39.540Z,65.98
2024-03-14T09:30:05.909Z,64.75
2024-03-14T09:32:32.127Z,64.82
2024-03-14T09:34:58.342Z,65.28
2024-03-14T09:37:24.554Z,64.87
2024-03-14T09:39:50.791Z,64.77
2024-03-14T09:42:17.022Z,65.02
2024-03-14T09:44:43.331Z,63.97
2024-03-14T09:47:09.692Z,65.10
2024-03-14T09:49:36.077Z,64.47
2024-03-14T09:52:02.281Z,64.18
2024-03-14T09:54:28.648Z,64.55
2024-03-14T09:56:54.985Z,64.31
2024-03-14T09:59:21.179Z,64.37
2024-03-14T10:01:47.406Z,64.85
2024-03-14T10:04:14.161Z,64.52
2024-03-14T10:06:40.588Z,63.74
2024-03-14T10:09:09.470Z,63.39
2024-03-14T10:11:38.245Z,64.19
2024-03-14T10:14:04.580Z,64.23
2024-03-14T10:16:30.817Z,63.46
2024-03-14T10:18:57.108Z,63.56
2024-03-14T10:21:23.551Z,63.58
2024-03-14T10:23:49.916Z,62.42
2024-03-14T10:26:16.219Z,62.87
2024-03-14T10:28:42.800Z,63.25
2024-03-14T10:31:09.353Z,63.07
2024-03-14T10:33:35.913Z,63.11
2024-03-14T10:36:02.584Z,63.19
2024-03-14T10:38:28.890Z,62.77
2024-03-14T10:40:55.088Z,62.53
2024-03-14T10:43:21.279Z,62.85
2024-03-14T10:45:47.662Z,62.09
2024-03-14T10:48:14.491Z,62.65
2024-03-14T10:50:40.964Z,63.00
2024-03-14T10:53:07.604Z,61.99
2024-03-14T10:55:33.955Z,62.39
2024-03-14T10:58:00.304Z,62.33
2024-03-14T11:00:26.564Z,61.84
2024-03-14T11:02:52.863Z,61.68
2024-03-14T11:05:19.141Z,61.06
2024-03-14T11:07:45.421Z,61.56
2024-03-14T11:10:11.651Z,61.17
2024-03-14T11:12:38.120Z,61.51
2024-03-14T11:15:04.455Z,61.91
2024-03-14T11:17:30.776Z,61.10
2024-03-14T11:19:57.096Z,61.17
2024-03-14T11:22:23.319Z,61.57
2024-03-14T11:24:49.545Z,60.74
2024-03-14T11:27:15.914Z,60.78
2024-03-14T11:29:42.180Z,59.78
2024-03-14T11:32:08.393Z,59.42
2024-03-14T11:34:34.728Z,58.34
2024-03-14T11:37:00.985Z,58.29
2024-03-14T11:39:27.269Z,57.77
2024-03-14T11:41:53.500Z,58.28
2024-03-14T11:44:19.799Z,58.28
2024-03-14T11:46:46.052Z,58.46
2024-03-14T11:49:12.256Z,59.06
2024-03-14T11:51:38.667Z,58.58
2024-03-14T11:54:05.046Z,58.15
2024-03-14T11:56:31.264Z,58.27
2024-03-14T11:58:57.549Z,58.08
2024-03-14T12:01:28.540Z,58.92
2024-03-14T12:03:59.874Z,58.16
2024-03-14T12:06:26.290Z,57.63
2024-03-14T12:08:52.651Z,57.54
2024-03-14T12:11:18.987Z,57.48
2024-03-14T12:13:45.210Z,57.15
2024-03-14T12:16:11.590Z,57.72
2024-03-14T12:18:37.840Z,57.74
2024-03-14T12:21:04.313Z,58.01
2024-03-14T12:23:31.111Z,57.37
2024-03-14T12:25:57.637Z,57.51
2024-03-14T12:28:23.927Z,58.06
2024-03-14T12:30:50.193Z,57.55
2024-03-14T12:33:16.675Z,59.16
2024-03-14T12:35:42.907Z,57.56
2024-03-14T12:38:09.201Z,57.77
2024-03-14T12:40:35.420Z,57.48
2024-03-14T12:43:01.603Z,56.72
2024-03-14T12:45:28.234Z,56.78
2024-03-14T12:47:54.596Z,57.08
2024-03-14T12:50:20.983Z,56.87
2024-03-14T12:52:47.213Z,57.47
2024-03-14T12:55:13.432Z,56.96
2024-03-14T12:57:39.721Z,57.23
2024-03-14T13:00:06.068Z,55.85
2024-03-14T13:02:32.497Z,55.98
2024-03-14T13:04:58.770Z,55.56
2024-03-14T13:07:25.155Z,54.65
2024-03-14T13:09:51.433Z,55.94
2024-03-14T13:12:17.701Z,55.67
2024-03-14T13:14:43.985Z,55.93
2024-03-14T13:17:10.244Z,55.81
2024-03-14T13:19:36.665Z,55.33
2024-03-14T13:22:03.275Z,56.64
2024-03-14T13:24:29.617Z,55.75
2024-03-14T13:26:56.021Z,55.93
2024-03-14T13:29:22.298Z,55.03
2024-03-14T13:31:48.600Z,54.05
2024-03-14T13:34:14.960Z,53.97
2024-03-14T13:36:41.344Z,54.92
2024-03-14T13:39:07.745Z,53.78
2024-03-14T13:41:34.091Z,53.35
2024-03-14T13:44:00.423Z,54.13
2024-03-14T13:46:26.720Z,53.64
2024-03-14T13:48:53.245Z,51.66
2024-03-14T13:51:19.667Z,52.19
2024-03-14T13:53:45.897Z,52.25
2024-03-14T13:56:12.115Z,52.47
2024-03-14T13:58:38.363Z,51.97
2024-03-14T14:01:04.643Z,52.31
2024-03-14T14:03:30.914Z,52.09
2024-03-14T14:05:57.800Z,51.77
2024-03-14T14:08:24.498Z,51.53
2024-03-14T14:10:50.750Z,51.77
2024-03-14T14:13:17.140Z,52.33
2024-03-14T14:15:43.536Z,51.77
2024-03-14T14:18:09.952Z,50.36
2024-03-14T14:20:36.283Z,50.49
2024-03-14T14:23:02.620Z,48.95
2024-03-14T14:25:28.919Z,48.86
2024-03-14T14:27:55.411Z,49.39
2024-03-14T14:30:21.809Z,51.31
2024-03-14T14:32:48.167Z,51.50
2024-03-14T14:35:14.460Z,51.52
2024-03-14T14:37:40.708Z,51.68
2024-03-14T14:40:06.994Z,50.92
2024-03-14T14:42:33.195Z,50.49
2024-03-14T14:44:59.556Z,50.81
2024-03-14T14:47:25.898Z,50.76
2024-03-14T14:49:52.150Z,50.49
2024-03-14T14:52:18.560Z,49.81
2024-03-14T14:54:44.865Z,50.24
2024-03-14T14:57:11.331Z,49.25
2024-03-14T14:59:37.556Z,49.60
2024-03-14T15:02:03.790Z,48.61
2024-03-14T15:04:30.131Z,48.80
2024-03-14T15:06:56.542Z,48.18
2024-03-14T15:09:23.013Z,48.55
2024-03-14T15:11:49.390Z,47.26
2024-03-14T15:14:15.652Z,46.41
2024-03-14T15:16:41.897Z,45.50
2024-03-14T15:19:08.278Z,46.09
2024-03-14T15:21:34.714Z,46.25
2024-03-14T15:24:01.001Z,46.03
2024-03-14T15:26:27.276Z,45.53
2024-03-14T15:28:53.551Z,45.60
2024-03-14T15:31:19.784Z,45.66
2024-03-14T15:33:46.156Z,45.96
2024-03-14T15:36:14.520Z,45.95
2024-03-14T15:38:42.129Z,46.65
2024-03-14T15:41:08.374Z,45.66
2024-03-14T15:43:34.698Z,47.07
2024-03-14T15:46:00.968Z,46.85
2024-03-14T15:48:27.246Z,45.95
2024-03-14T15:50:53.485Z,45.87
2024-03-14T15:53:19.765Z,46.22
2024-03-14T15:55:46.064Z,46.37
2024-03-14T15:58:12.254Z,46.98
2024-03-14T16:00:38.528Z,47.01
2024-03-14T16:03:05.070Z,46.13
2024-03-14T16:05:31.354Z,47.29
2024-03-14T16:07:57.653Z,47.41
2024-03-14T16:10:23.896Z,46.92
2024-03-14T16:12:50.130Z,47.33
2024-03-14T16:15:16.476Z,46.82
2024-03-14T16:17:42.977Z,46.74
2024-03-14T16:20:09.369Z,47.38
2024-03-14T16:22:35.608Z,47.29
2024-03-14T16:25:01.906Z,47.31
2024-03-14T16:27:28.174Z,46.81
2024-03-14T16:29:54.497Z,47.40
2024-03-14T16:32:20.714Z,48.06
2024-03-14T16:34:46.938Z,48.22
2024-03-14T16:37:13.236Z,48.18
2024-03-14T16:39:39.593Z,48.76
2024-03-14T16:42:05.854Z,49.10
2024-03-14T16:44:34.519Z,48.77
2024-03-14T16:47:02.079Z,49.56
2024-03-14T16:49:28.273Z,49.70
2024-03-14T16:51:54.642Z,49.59
2024-03-14T16:54:20.947Z,50.49
2024-03-14T16:56:47.244Z,51.06
2024-03-14T16:59:13.520Z,51.13
2024-03-14T17:01:39.883Z,50.76
2024-03-14T17:04:06.111Z,51.04
2024-03-14T17:06:32.396Z,50.85
2024-03-14T17:08:58.746Z,50.94
2024-03-14T17:11:25.365Z,50.92
2024-03-14T17:13:51.751Z,51.20
2024-03-14T17:16:18.003Z,52.58
2024-03-14T17:18:44.410Z,53.49
2024-03-14T17:21:10.813Z,53.03
2024-03-14T17:23:37.057Z,53.12
2024-03-14T17:26:03.285Z,54.38
2024-03-14T17:28:29.481Z,53.72
2024-03-14T17:30:55.729Z,54.19
2024-03-14T17:33:22.081Z,54.42
2024-03-14T17:35:48.324Z,54.88
2024-03-14T17:38:15.338Z,55.12
2024-03-14T17:40:41.608Z,56.06
2024-03-14T17:43:07.818Z,55.81
2024-03-14T17:45:34.222Z,56.00
2024-03-14T17:48:00.652Z,56.03
2024-03-14T17:50:27.001Z,56.49
2024-03-14T17:52:53.281Z,56.06
2024-03-14T17:55:19.814Z,56.48
2024-03-14T17:57:47.011Z,56.75
2024-03-14T18:00:13.638Z,56.99
2024-03-14T18:02:39.897Z,57.07
2024-03-14T18:05:06.210Z,57.96
2024-03-14T18:07:32.474Z,57.76
2024-03-14T18:09:58.828Z,57.98
2024-03-14T18:12:25.161Z,57.80
2024-03-14T18:14:51.472Z,59.13
2024-03-14T18:17:21.007Z,58.34
2024-03-14T18:19:48.748Z,59.27
2024-03-14T18:22:15.045Z,58.91
2024-03-14T18:24:41.358Z,58.95
2024-03-14T18:27:07.751Z,59.23
2024-03-14T18:29:33.968Z,58.47
2024-03-14T18:32:00.189Z,58.91
2024-03-14T18:34:26.470Z,58.18
2024-03-14T18:36:52.802Z,58.92
2024-03-14T18:39:19.448Z,59.36
2024-03-14T18:41:45.754Z,59.01
2024-03-14T18:44:12.207Z,59.17
2024-03-14T18:46:38.672Z,59.19
2024-03-14T18:49:11.900Z,59.30
2024-03-14T18:51:43.650Z,59.37
2024-03-14T18:54:09.887Z,59.73
2024-03-14T18:56:36.098Z,59.62
2024-03-14T18:59:02.307Z,59.68
2024-03-14T19:01:28.642Z,59.99
2024-03-14T19:03:54.910Z,59.65
2024-03-14T19:06:21.298Z,59.69
2024-03-14T19:08:47.558Z,60.21
2024-03-14T19:11:13.883Z,59.96
2024-03-14T19:13:40.144Z,60.85
2024-03-14T19:16:06.488Z,61.01
2024-03-14T19:18:32.834Z,61.16
2024-03-14T19:20:59.123Z,61.81
2024-03-14T19:23:25.427Z,61.61
2024-03-14T19:25:51.687Z,62.02
2024-03-14T19:28:18.081Z,61.81
2024-03-14T19:30:44.821Z,62.37
2024-03-14T19:33:11.228Z,62.25
2024-03-14T19:35:37.646Z,61.97
2024-03-14T19:38:03.951Z,62.91
2024-03-14T19:40:30.306Z,62.63
2024-03-14T19:42:56.588Z,62.78
2024-03-14T19:45:23.012Z,63.49
2024-03-14T19:47:49.301Z,62.88
2024-03-14T19:50:15.604Z,63.04
2024-03-14T19:52:41.830Z,63.22
2024-03-14T19:55:08.088Z,63.58
2024-03-14T19:57:34.462Z,63.20
2024-03-14T20:00:00.901Z,64.08
2024-03-14T20:02:27.415Z,63.84
2024-03-14T20:04:53.671Z,64.64
2024-03-14T20:07:19.944Z,63.76
2024-03-14T20:09:46.251Z,64.28
2024-03-14T20:12:12.691Z,64.25
2024-03-14T20:14:38.970Z,64.95
2024-03-14T20:17:05.239Z,64.05
2024-03-14T20:19:31.500Z,64.52
2024-03-14T20:21:57.934Z,65.21
2024-03-14T20:24:24.293Z,64.99
2024-03-14T20:26:50.558Z,65.38
2024-03-14T20:29:16.808Z,65.31
2024-03-14T20:31:43.133Z,64.59
2024-03-14T20:34:09.662Z,65.17
2024-03-14T20:36:36.028Z,65.08
2024-03-14T20:41:31.543Z,64.82
2024-03-14T20:43:57.910Z,64.35
2024-03-14T20:46:24.209Z,64.85
2024-03-14T20:48:51.349Z,65.32
2024-03-14T20:51:18.101Z,64.64
2024-03-14T20:53:44.408Z,65.16
2024-03-14T20:56:10.595Z,65.32
2024-03-14T20:58:36.833Z,65.35
2024-03-14T21:01:03.094Z,65.25
2024-03-14T21:03:29.385Z,65.21
2024-03-14T21:05:55.666Z,65.26
2024-03-14T21:08:22.023Z,65.69
2024-03-14T21:10:48.266Z,65.29
2024-03-14T21:13:14.519Z,65.44
2024-03-14T21:15:41.267Z,65.80
2024-03-14T21:18:08.286Z,65.58
2024-03-14T21:20:34.737Z,65.92
2024-03-14T21:23:01.179Z,65.87
2024-03-14T21:25:27.401Z,65.92
2024-03-14T21:27:53.775Z,65.26
2024-03-14T21:30:20.148Z,65.93
2024-03-14T21:32:46.418Z,65.49
2024-03-14T21:35:12.692Z,65.23
2024-03-14T21:37:39.106Z,66.50
2024-03-14T21:40:05.321Z,66.28
2024-03-14T21:42:31.532Z,66.19
2024-03-14T21:44:58.016Z,66.05
2024-03-14T21:47:24.232Z,66.52
2024-03-14T21:49:50.521Z,65.75
2024-03-14T21:52:16.777Z,66.67
2024-03-14T21:54:42.961Z,66.49
2024-03-14T21:57:09.238Z,66.30
2024-03-14T21:59:35.449Z,66.90
2024-03-14T22:02:01.794Z,66.88
2024-03-14T22:04:28.078Z,67.04
2024-03-14T22:06:54.373Z,66.37
2024-03-14T22:09:20.587Z,67.19
2024-03-14T22:11:46.929Z,67.80
2024-03-14T22:14:13.140Z,66.95
2024-03-14T22:16:39.362Z,67.16
2024-03-14T22:19:05.841Z,67.02
2024-03-14T22:21:32.107Z,67.11
2024-03-14T22:23:58.317Z,67.29
2024-03-14T22:26:24.521Z,66.82
2024-03-14T22:28:50.721Z,66.75
2024-03-14T22:31:16.977Z,66.79
2024-03-14T22:33:43.242Z,66.99
2024-03-14T22:36:09.688Z,67.63
2024-03-14T22:38:35.914Z,67.88
2024-03-14T22:41:03.074Z,67.04
2024-03-14T22:43:30.327Z,66.63
2024-03-14T22:45:56.685Z,67.11
2024-03-14T22:48:22.992Z,67.60
2024-03-14T22:50:49.514Z,67.60
2024-03-14T22:53:15.706Z,67.44
2024-03-14T22:55:42.031Z,67.98
2024-03-14T22:58:08.251Z,67.15
2024-03-14T23:00:34.672Z,67.80
2024-03-14T23:03:00.921Z,67.21
2024-03-14T23:05:27.255Z,68.37
2024-03-14T23:07:53.467Z,67.50
2024-03-14T23:10:20.086Z,67.20
2024-03-14T23:12:46.513Z,67.54
2024-03-14T23:15:12.853Z,67.26
2024-03-14T23:17:39.119Z,67.23
2024-03-14T23:20:05.374Z,67.23
2024-03-14T23:22:31.584Z,67.48
2024-03-14T23:24:57.807Z,67.41
2024-03-14T23:27:24.070Z,67.14
2024-03-14T23:29:50.307Z,67.24
2024-03-14T23:32:16.527Z,66.62
2024-03-14T23:34:42.879Z,66.95
2024-03-14T23:37:09.126Z,66.93
2024-03-14T23:39:35.352Z,66.20
2024-03-14T23:42:01.643Z,66.73
2024-03-14T23:44:27.837Z,66.72
2024-03-14T23:46:54.137Z,66.03
2024-03-14T23:49:20.479Z,66.18
2024-03-14T23:51:46.910Z,66.25
2024-03-14T23:54:13.296Z,65.98
2024-03-14T23:56:39.521Z,66.89
2024-03-14T23:59:05.739Z,66.62
